Time;durP1;ratioP1;P1;durP2;ratioP2;P2;SDS_P1;SDS_P2;PMS_P1;PMS_P2;Temp;Humidity;BMP_temperature;BMP_pressure;BME280_temperature;BME280_humidity;BME280_pressure;Samples;Min_cycle;Max_cycle;Signal;HPM_P1;HPM_P2
2021/01/29 00:00:52;;;;;;;4.93;2.17;;;10.30;99.90;;;;;;4879048;29;20404;-81
2021/01/29 00:03:18;;;;;;;4.38;2.13;;;10.30;99.90;;;;;;4880673;29;20041;-79
2021/01/29 00:05:51;;;;;;;4.20;1.90;;;10.30;99.90;;;;;;4880621;29;20045;-80
2021/01/29 00:08:17;;;;;;;4.97;2.30;;;10.30;99.90;;;;;;4878251;29;20043;-81
2021/01/29 00:10:43;;;;;;;3.72;1.90;;;10.20;99.90;;;;;;4882459;29;20040;-81
2021/01/29 00:13:10;;;;;;;6.18;1.88;;;;;;;;;;4877194;29;20144;-81
2021/01/29 00:15:36;;;;;;;3.50;1.73;;;10.20;99.90;;;;;;4880862;29;20086;-80
2021/01/29 00:18:02;;;;;;;3.25;1.60;;;10.20;99.90;;;;;;4879997;29;20037;-79
2021/01/29 00:20:28;;;;;;;3.65;1.38;;;10.20;99.90;;;;;;4876874;29;20077;-81
2021/01/29 00:22:56;;;;;;;5.15;1.55;;;10.20;99.90;;;;;;4874372;29;20029;-79
2021/01/29 00:25:30;;;;;;;2.80;1.58;;;12.40;99.90;;;;;;4893461;29;20037;-79
2021/01/29 00:27:56;;;;;;;3.25;1.58;;;10.20;99.90;;;;;;4874970;29;20506;-78
2021/01/29 00:30:23;;;;;;;3.33;1.48;;;10.30;99.90;;;;;;4875619;29;20033;-79
2021/01/29 00:32:50;;;;;;;6.55;2.05;;;10.30;99.90;;;;;;4877413;29;20132;-79
2021/01/29 00:35:16;;;;;;;2.22;1.55;;;10.30;99.90;;;;;;4873694;29;20041;-81
2021/01/29 00:37:42;;;;;;;4.20;1.60;;;10.30;99.90;;;;;;4877995;29;20139;-79
2021/01/29 00:40:09;;;;;;;2.97;1.67;;;10.30;99.90;;;;;;4873410;29;20265;-77
2021/01/29 00:42:36;;;;;;;4.45;1.60;;;10.30;99.90;;;;;;4877785;29;20040;-81
2021/01/29 00:45:04;;;;;;;2.95;1.70;;;10.30;99.90;;;;;;4877205;29;20802;-82
2021/01/29 00:47:29;;;;;;;3.10;1.90;;;10.30;99.90;;;;;;4877787;29;20085;-80
2021/01/29 00:49:55;;;;;;;3.78;1.80;;;10.30;99.90;;;;;;4880753;29;20037;-80
2021/01/29 00:52:21;;;;;;;2.80;1.52;;;10.30;99.90;;;;;;4882362;29;20041;-81
2021/01/29 00:54:47;;;;;;;2.55;1.30;;;10.30;99.90;;;;;;4881096;29;20051;-82
2021/01/29 00:57:13;;;;;;;4.18;1.70;;;10.50;99.90;;;;;;4876534;29;20037;-80
2021/01/29 00:59:39;;;;;;;3.22;1.70;;;10.40;99.90;;;;;;4881036;29;20546;-79
2021/01/29 01:02:05;;;;;;;3.33;1.70;;;10.30;99.90;;;;;;4882857;29;20147;-79
2021/01/29 01:04:31;;;;;;;2.60;1.20;;;10.30;99.90;;;;;;4874629;29;20036;-77
2021/01/29 01:06:57;;;;;;;2.78;1.27;;;10.40;99.90;;;;;;4878179;29;20072;-80
2021/01/29 01:09:23;;;;;;;1.35;1.00;;;10.90;99.90;;;;;;4876625;29;20424;-80
2021/01/29 01:11:49;;;;;;;2.75;1.10;;;10.40;99.90;;;;;;4883661;29;20033;-78
2021/01/29 01:14:15;;;;;;;1.60;1.02;;;10.40;99.90;;;;;;4892381;29;20028;-79
2021/01/29 01:16:41;;;;;;;2.65;1.30;;;10.50;99.90;;;;;;4884392;29;20045;-80
2021/01/29 01:19:07;;;;;;;2.05;0.90;;;10.50;99.90;;;;;;4884083;29;20056;-79
2021/01/29 01:21:33;;;;;;;2.15;1.05;;;10.60;99.90;;;;;;4892031;29;20045;-79
2021/01/29 01:23:59;;;;;;;1.45;1.10;;;10.60;99.90;;;;;;4880505;29;20037;-76
2021/01/29 01:26:25;;;;;;;3.03;0.90;;;10.60;99.90;;;;;;4878430;29;20037;-79
2021/01/29 01:28:51;;;;;;;2.40;1.20;;;10.60;99.90;;;;;;4872545;29;20055;-79
2021/01/29 01:31:17;;;;;;;2.60;1.10;;;10.60;99.90;;;;;;4878805;29;20045;-79
2021/01/29 01:33:43;;;;;;;2.67;1.10;;;10.70;99.90;;;;;;4878299;29;20048;-83
2021/01/29 01:36:09;;;;;;;2.40;1.00;;;10.70;99.90;;;;;;4875684;29;20045;-83
2021/01/29 01:38:35;;;;;;;3.33;1.30;;;10.70;99.90;;;;;;4877232;29;20056;-81
2021/01/29 01:41:01;;;;;;;2.05;1.10;;;10.80;99.90;;;;;;4880620;29;20037;-79
2021/01/29 01:43:27;;;;;;;2.75;1.15;;;10.90;99.90;;;;;;4879796;29;20148;-81
2021/01/29 01:46:01;;;;;;;2.17;1.35;;;11.00;99.90;;;;;;4880485;29;20037;-79
2021/01/29 01:48:58;;;;;;;2.03;1.20;;;10.90;99.90;;;;;;4876582;29;20045;-81
2021/01/29 01:51:40;;;;;;;3.42;1.15;;;10.90;99.90;;;;;;4881017;29;20395;-80
2021/01/29 01:54:26;;;;;;;5.68;1.75;;;10.90;99.90;;;;;;4878243;29;20047;-81
2021/01/29 01:56:57;;;;;;;3.90;1.20;;;10.90;99.90;;;;;;4880806;29;20077;-82
2021/01/29 01:59:24;;;;;;;;;;;10.90;99.90;;;;;;4883586;29;20608;-80
2021/01/29 02:01:52;;;;;;;2.92;0.90;;;10.90;99.90;;;;;;4879485;29;19935;-79
2021/01/29 02:04:21;;;;;;;2.90;1.10;;;11.00;99.90;;;;;;4877431;29;20044;-80
2021/01/29 02:07:13;;;;;;;2.30;1.00;;;11.00;99.90;;;;;;4884167;29;20519;-79
2021/01/29 02:09:43;;;;;;;2.78;1.10;;;11.10;99.90;;;;;;4879071;29;20040;-79
2021/01/29 02:12:09;;;;;;;3.40;1.13;;;11.00;99.90;;;;;;4875623;29;20499;-79
2021/01/29 02:14:35;;;;;;;3.08;1.10;;;10.90;99.90;;;;;;4880763;29;20121;-82
2021/01/29 02:17:12;;;;;;;3.22;1.10;;;11.70;99.90;;;;;;4878077;29;20069;-78
2021/01/29 02:20:15;;;;;;;3.00;1.00;;;11.10;99.90;;;;;;4878919;29;20075;-78
2021/01/29 02:22:46;;;;;;;2.97;1.20;;;11.00;99.90;;;;;;4882811;29;20041;-80
2021/01/29 02:25:48;;;;;;;4.95;1.33;;;10.90;99.90;;;;;;4882005;29;20033;-78
2021/01/29 02:28:42;;;;;;;2.67;0.80;;;10.90;99.90;;;;;;4884109;29;20037;-80
2021/01/29 02:31:31;;;;;;;2.42;0.93;;;10.90;99.90;;;;;;4860145;29;20045;-80
2021/01/29 02:34:24;;;;;;;3.70;1.25;;;10.90;99.90;;;;;;4854480;29;20065;-82
2021/01/29 02:37:05;;;;;;;1.95;0.98;;;10.90;99.90;;;;;;4883185;29;20046;-79
2021/01/29 02:40:06;;;;;;;4.95;1.20;;;10.80;99.90;;;;;;4885160;29;20059;-80
2021/01/29 02:42:58;;;;;;;2.63;1.27;;;10.80;99.90;;;;;;4867988;29;20052;-80
2021/01/29 02:45:33;;;;;;;3.78;1.45;;;10.80;99.90;;;;;;4882287;29;20033;-80
2021/01/29 02:48:15;;;;;;;2.58;1.63;;;10.80;99.90;;;;;;4878689;29;20052;-80
2021/01/29 02:50:50;;;;;;;3.25;1.45;;;10.80;99.90;;;;;;4885956;29;20091;-80
2021/01/29 02:53:29;;;;;;;2.70;1.50;;;10.80;99.90;;;;;;4880813;29;20047;-79
2021/01/29 02:56:20;;;;;;;3.30;1.30;;;10.80;99.90;;;;;;4884775;29;20764;-80
2021/01/29 02:58:58;;;;;;;3.50;1.42;;;10.80;99.90;;;;;;4882341;29;20048;-80
2021/01/29 03:01:49;;;;;;;3.05;1.40;;;10.80;99.90;;;;;;4882212;29;20021;-79
2021/01/29 03:04:26;;;;;;;3.92;1.30;;;10.90;99.90;;;;;;4880431;29;20037;-79
2021/01/29 03:07:04;;;;;;;2.35;1.00;;;10.80;99.90;;;;;;4882222;29;20077;-80
2021/01/29 03:09:40;;;;;;;2.80;1.10;;;10.90;99.90;;;;;;4879858;29;20060;-81
2021/01/29 03:12:25;;;;;;;3.08;1.00;;;10.90;99.90;;;;;;4884022;29;20063;-80
2021/01/29 03:15:12;;;;;;;2.10;1.13;;;10.80;99.90;;;;;;4882222;29;20045;-78
2021/01/29 03:17:51;;;;;;;1.90;1.02;;;10.80;99.90;;;;;;4880008;29;20057;-80
2021/01/29 03:20:25;;;;;;;2.15;1.00;;;10.80;99.90;;;;;;4880425;29;20071;-79
2021/01/29 03:22:59;;;;;;;2.83;1.08;;;10.80;99.90;;;;;;4875191;29;20067;-80
2021/01/29 03:25:32;;;;;;;3.03;1.25;;;10.80;99.90;;;;;;4885667;29;20037;-79
2021/01/29 03:28:04;;;;;;;1.90;0.85;;;10.80;99.90;;;;;;4880917;29;20044;-80
2021/01/29 03:30:34;;;;;;;4.45;1.30;;;10.70;99.90;;;;;;4897499;29;20145;-78
2021/01/29 03:33:01;;;;;;;3.08;1.13;;;10.70;99.90;;;;;;4882903;29;20041;-76
2021/01/29 03:35:29;;;;;;;2.83;1.42;;;10.70;99.90;;;;;;4880300;29;20075;-79
2021/01/29 03:38:23;;;;;;;2.83;1.40;;;10.70;99.90;;;;;;4881791;29;20511;-79
2021/01/29 03:41:28;;;;;;;2.10;1.30;;;10.70;99.90;;;;;;4882116;29;20041;-79
2021/01/29 03:44:16;;;;;;;2.83;1.40;;;10.70;99.90;;;;;;4872369;29;20037;-80
2021/01/29 03:47:07;;;;;;;3.00;1.38;;;10.70;99.90;;;;;;4883727;29;20068;-79
2021/01/29 03:49:40;;;;;;;2.50;1.50;;;10.70;99.90;;;;;;4881744;29;20044;-80
2021/01/29 03:52:31;;;;;;;3.28;1.60;;;10.60;99.90;;;;;;4884287;29;20072;-80
2021/01/29 03:55:21;;;;;;;3.30;1.70;;;10.60;99.90;;;;;;4880930;29;20108;-81
2021/01/29 03:58:12;;;;;;;2.88;1.48;;;10.60;99.90;;;;;;4883354;29;20041;-81
2021/01/29 04:00:44;;;;;;;2.13;1.48;;;10.60;99.90;;;;;;4892752;29;20403;-82
2021/01/29 04:03:38;;;;;;;1.88;1.30;;;10.60;99.90;;;;;;4877497;29;20046;-79
2021/01/29 04:06:10;;;;;;;3.13;1.90;;;10.60;99.90;;;;;;4880546;29;20045;-79
2021/01/29 04:08:44;;;;;;;3.05;1.92;;;10.60;99.90;;;;;;4882985;29;20072;-80
2021/01/29 04:11:16;;;;;;;3.28;1.80;;;10.60;99.90;;;;;;4883317;29;20032;-81
2021/01/29 04:13:46;;;;;;;3.47;2.22;;;11.20;99.90;;;;;;4884516;29;20044;-80
2021/01/29 04:16:18;;;;;;;2.53;1.80;;;10.60;99.90;;;;;;4877759;29;20125;-78
2021/01/29 04:18:49;;;;;;;2.53;1.77;;;10.60;99.90;;;;;;4877054;29;20037;-78
2021/01/29 04:21:38;;;;;;;2.45;1.70;;;10.50;99.90;;;;;;4882461;29;20096;-79
2021/01/29 04:24:18;;;;;;;2.83;1.88;;;10.50;99.90;;;;;;4881439;29;20033;-78
2021/01/29 04:27:09;;;;;;;2.90;1.70;;;10.50;99.90;;;;;;4882099;29;20478;-79
2021/01/29 04:29:46;;;;;;;3.25;1.90;;;10.50;99.90;;;;;;4877871;29;20033;-79
2021/01/29 04:32:18;;;;;;;3.05;1.80;;;10.50;99.90;;;;;;4884773;29;20108;-78
2021/01/29 04:34:48;;;;;;;2.17;1.40;;;10.50;99.90;;;;;;4883037;29;20454;-81
2021/01/29 04:37:24;;;;;;;1.63;1.20;;;10.50;99.90;;;;;;4882651;29;20140;-79
2021/01/29 04:39:54;;;;;;;3.42;1.45;;;10.50;99.90;;;;;;4880706;29;20045;-81
2021/01/29 04:42:59;;;;;;;1.90;1.10;;;10.60;99.90;;;;;;4882639;29;20037;-80
2021/01/29 04:45:41;;;;;;;2.30;0.82;;;10.70;99.90;;;;;;4863724;29;20423;-80
2021/01/29 04:48:18;;;;;;;2.13;0.80;;;10.70;99.90;;;;;;4885965;29;20052;-77
2021/01/29 04:50:44;;;;;;;0.57;0.40;;;10.90;99.90;;;;;;4880165;29;20048;-78
2021/01/29 04:53:34;;;;;;;0.55;0.45;;;11.00;99.90;;;;;;4880331;29;20045;-82
2021/01/29 04:56:03;;;;;;;2.05;0.60;;;11.10;99.90;;;;;;4883920;29;20109;-82
2021/01/29 04:59:00;;;;;;;1.02;0.57;;;11.20;99.90;;;;;;4880948;29;20041;-78
2021/01/29 05:01:45;;;;;;;0.70;0.30;;;11.20;99.90;;;;;;4868924;29;20045;-80
2021/01/29 05:04:45;;;;;;;1.05;0.60;;;11.20;99.90;;;;;;4894493;29;20058;-81
2021/01/29 05:07:23;;;;;;;0.52;0.30;;;11.30;99.90;;;;;;4881694;29;20088;-81
2021/01/29 05:09:58;;;;;;;0.85;0.50;;;11.30;99.90;;;;;;4882415;29;20455;-78
2021/01/29 05:12:36;;;;;;;2.10;0.68;;;11.10;99.90;;;;;;4879052;29;20045;-78
2021/01/29 05:15:17;;;;;;;1.67;0.50;;;11.10;99.90;;;;;;4875336;29;20113;-82
2021/01/29 05:17:42;;;;;;;1.50;0.70;;;;;;;;;;4894158;29;20033;-78
2021/01/29 05:20:35;;;;;;;1.33;0.65;;;11.00;99.90;;;;;;4882837;29;20036;-79
2021/01/29 05:23:33;;;;;;;0.95;0.50;;;10.90;99.90;;;;;;4876819;29;20117;-78
2021/01/29 05:26:23;;;;;;;1.08;0.60;;;10.80;99.90;;;;;;4882293;29;20045;-81
2021/01/29 05:29:07;;;;;;;1.25;0.55;;;10.70;99.90;;;;;;4880476;29;20100;-78
2021/01/29 05:31:57;;;;;;;3.03;0.80;;;10.70;99.90;;;;;;4872738;29;20048;-79
2021/01/29 05:34:53;;;;;;;2.60;1.07;;;10.70;99.90;;;;;;4871139;29;20109;-81
2021/01/29 05:37:54;;;;;;;1.92;0.90;;;10.60;99.90;;;;;;4876103;29;20051;-80
2021/01/29 05:40:42;;;;;;;2.88;0.80;;;10.50;99.90;;;;;;4859907;29;20041;-80
2021/01/29 05:43:27;;;;;;;3.20;1.00;;;10.30;99.90;;;;;;4878534;29;20039;-79
2021/01/29 05:46:02;;;;;;;3.63;0.82;;;10.20;99.90;;;;;;4879126;29;20029;-79
2021/01/29 05:48:45;;;;;;;1.45;0.77;;;10.20;99.90;;;;;;4882604;29;20091;-80
2021/01/29 05:51:21;;;;;;;1.40;0.55;;;10.60;99.90;;;;;;4876079;29;20037;-79
2021/01/29 05:54:05;;;;;;;2.90;0.50;;;10.30;99.90;;;;;;4882652;29;20029;-79
2021/01/29 05:56:46;;;;;;;1.85;0.50;;;10.30;99.90;;;;;;4881536;29;20041;-80
2021/01/29 05:59:14;;;;;;;1.45;0.40;;;10.30;99.90;;;;;;4881605;29;20093;-80
2021/01/29 06:02:00;;;;;;;1.35;0.47;;;10.30;99.90;;;;;;4881305;29;20033;-79
2021/01/29 06:04:52;;;;;;;2.30;0.50;;;10.20;99.90;;;;;;4887520;29;20041;-78
2021/01/29 06:07:24;;;;;;;1.58;0.40;;;10.20;99.90;;;;;;4883659;29;20045;-82
2021/01/29 06:09:59;;;;;;;0.50;0.30;;;10.20;99.90;;;;;;4877429;29;20037;-81
2021/01/29 06:12:58;;;;;;;3.78;0.90;;;11.40;99.90;;;;;;4875151;29;20052;-80
2021/01/29 06:16:01;;;;;;;0.65;0.35;;;10.20;99.90;;;;;;4860178;29;20108;-80
2021/01/29 06:18:50;;;;;;;1.27;0.80;;;10.20;99.90;;;;;;4893506;29;20108;-79
2021/01/29 06:21:50;;;;;;;0.30;0.30;;;10.20;99.90;;;;;;4879381;29;20049;-78
2021/01/29 06:24:35;;;;;;;0.65;0.43;;;10.20;99.90;;;;;;4883246;29;20040;-79
2021/01/29 06:27:42;;;;;;;2.40;0.40;;;10.10;99.90;;;;;;4881975;29;20530;-82
2021/01/29 06:30:34;;;;;;;2.58;0.50;;;10.10;99.90;;;;;;4885510;29;20060;-80
2021/01/29 06:33:12;;;;;;;1.42;0.47;;;10.00;99.90;;;;;;4885968;29;20086;-80
2021/01/29 06:35:54;;;;;;;0.70;0.50;;;10.10;99.90;;;;;;4879891;29;20037;-77
2021/01/29 06:38:29;;;;;;;1.02;0.40;;;10.10;99.90;;;;;;4883853;29;20048;-76
2021/01/29 06:41:30;;;;;;;10.90;4.68;;;10.20;99.90;;;;;;4877383;29;20104;-83
2021/01/29 06:44:03;;;;;;;2.30;0.63;;;10.30;99.90;;;;;;4881928;29;20041;-79
2021/01/29 06:46:47;;;;;;;0.70;0.40;;;10.30;99.90;;;;;;4877496;29;20093;-80
2021/01/29 06:49:34;;;;;;;1.45;0.45;;;10.40;99.90;;;;;;4879843;29;21038;-80
2021/01/29 06:52:03;;;;;;;3.95;0.70;;;10.50;99.90;;;;;;4889382;29;20049;-76
2021/01/29 06:55:01;;;;;;;0.60;0.35;;;10.50;99.90;;;;;;4873226;29;20120;-78
2021/01/29 06:57:54;;;;;;;2.28;0.68;;;10.50;99.90;;;;;;4874482;29;20123;-79
2021/01/29 07:00:35;;;;;;;4.05;0.77;;;10.60;99.90;;;;;;4892259;29;20048;-80
2021/01/29 07:03:26;;;;;;;0.73;0.47;;;10.60;99.90;;;;;;4878418;29;20045;-80
2021/01/29 07:06:26;;;;;;;3.30;0.52;;;10.60;99.90;;;;;;4872001;29;20133;-81
2021/01/29 07:09:11;;;;;;;1.80;0.70;;;10.50;99.90;;;;;;4876261;29;20519;-80
2021/01/29 07:12:01;;;;;;;1.40;0.60;;;10.50;99.90;;;;;;4868835;29;20297;-80
2021/01/29 07:14:54;;;;;;;1.58;0.50;;;10.60;99.90;;;;;;4872933;29;20052;-81
2021/01/29 07:17:45;;;;;;;3.88;0.80;;;10.60;99.90;;;;;;4876215;29;20064;-83
2021/01/29 07:20:19;;;;;;;2.10;0.68;;;10.40;99.90;;;;;;4867639;29;20084;-81
2021/01/29 07:23:19;;;;;;;1.83;0.80;;;10.40;99.90;;;;;;4868937;29;20089;-80
2021/01/29 07:25:51;;;;;;;1.25;0.52;;;10.40;99.90;;;;;;4876690;29;20471;-80
2021/01/29 07:28:32;;;;;;;2.40;0.70;;;10.30;99.90;;;;;;4875273;29;20412;-80
2021/01/29 07:31:20;;;;;;;2.78;0.60;;;10.40;99.90;;;;;;4876847;29;20041;-81
2021/01/29 07:33:59;;;;;;;2.22;0.90;;;10.60;99.90;;;;;;4874624;29;20431;-83
2021/01/29 07:36:43;;;;;;;3.13;1.10;;;10.50;99.90;;;;;;4872948;29;20125;-81
2021/01/29 07:39:38;;;;;;;2.83;0.85;;;10.50;99.90;;;;;;4876381;29;20041;-80
2021/01/29 07:42:24;;;;;;;3.33;0.85;;;10.50;99.90;;;;;;4874919;29;20030;-81
2021/01/29 07:45:24;;;;;;;4.63;1.02;;;10.60;99.90;;;;;;4875705;29;20772;-84
2021/01/29 07:48:12;;;;;;;3.25;0.90;;;10.80;99.90;;;;;;4878067;29;20036;-79
2021/01/29 07:50:45;;;;;;;4.70;1.00;;;10.80;99.90;;;;;;4879049;29;20521;-82
2021/01/29 07:53:28;;;;;;;7.05;1.60;;;10.70;99.90;;;;;;4881965;29;20044;-81
2021/01/29 07:56:12;;;;;;;3.95;0.98;;;10.70;99.90;;;;;;4876453;29;20060;-80
2021/01/29 07:58:48;;;;;;;4.10;1.50;;;9.60;99.90;;;;;;4879075;29;20132;-82
2021/01/29 08:01:49;;;;;;;6.22;1.35;;;10.70;99.90;;;;;;4880544;29;20088;-81
2021/01/29 08:04:18;;;;;;;8.15;1.63;;;10.70;99.90;;;;;;4859069;29;20565;-82
2021/01/29 08:07:17;;;;;;;4.70;1.13;;;10.70;99.90;;;;;;4872835;29;20551;-81
2021/01/29 08:09:54;;;;;;;5.03;1.10;;;10.80;99.90;;;;;;4873432;29;20051;-84
2021/01/29 08:12:22;;;;;;;4.38;1.35;;;10.80;99.90;;;;;;4875540;29;20048;-82
2021/01/29 08:15:18;;;;;;;3.67;1.33;;;11.10;99.90;;;;;;4880061;29;20060;-82
2021/01/29 08:18:03;;;;;;;7.35;1.20;;;10.80;99.90;;;;;;4876172;29;20029;-81
2021/01/29 08:21:26;;;;;;;5.78;1.13;;;10.80;99.90;;;;;;4870997;29;20040;-80
2021/01/29 08:24:05;;;;;;;4.78;1.10;;;10.80;99.90;;;;;;4818247;29;20070;-83
2021/01/29 08:26:41;;;;;;;7.22;1.30;;;10.80;99.90;;;;;;4814875;29;20046;-80
2021/01/29 08:29:37;;;;;;;5.75;1.48;;;10.80;99.90;;;;;;4859818;29;21038;-81
2021/01/29 08:32:31;;;;;;;6.60;2.25;;;10.70;99.90;;;;;;4871369;29;20089;-81
2021/01/29 08:35:20;;;;;;;5.88;1.23;;;12.90;99.90;;;;;;4868273;29;20041;-81
2021/01/29 08:38:07;;;;;;;10.15;1.77;;;10.90;99.20;;;;;;4874744;29;20449;-83
2021/01/29 08:40:45;;;;;;;5.88;1.73;;;10.90;99.50;;;;;;4876603;29;20444;-83
2021/01/29 08:43:26;;;;;;;4.43;1.30;;;10.90;99.80;;;;;;4872396;29;20047;-82
2021/01/29 08:46:09;;;;;;;7.50;1.30;;;10.90;99.90;;;;;;4868673;29;20034;-86
2021/01/29 08:48:59;;;;;;;8.32;1.73;;;10.90;99.90;;;;;;4874442;29;20055;-81
2021/01/29 08:51:52;;;;;;;7.75;1.40;;;10.70;99.90;;;;;;4878036;29;20049;-81
2021/01/29 08:54:30;;;;;;;7.38;1.80;;;10.60;99.90;;;;;;4875705;29;20053;-86
2021/01/29 08:57:12;;;;;;;5.75;1.88;;;10.60;99.90;;;;;;4873096;29;20029;-81
2021/01/29 08:59:49;;;;;;;7.78;1.70;;;10.70;99.90;;;;;;4876077;29;20061;-84
2021/01/29 09:02:37;;;;;;;6.57;1.60;;;10.60;99.90;;;;;;4878926;29;20066;-83
2021/01/29 09:05:09;;;;;;;6.30;1.55;;;12.40;99.90;;;;;;4875607;29;20038;-82
2021/01/29 09:07:44;;;;;;;8.07;1.50;;;10.60;99.90;;;;;;4881741;29;20048;-83
2021/01/29 09:10:13;;;;;;;10.82;1.73;;;12.30;99.90;;;;;;4880464;29;20045;-81
2021/01/29 09:12:41;;;;;;;10.10;1.70;;;10.60;99.90;;;;;;4878345;29;20120;-84
2021/01/29 09:15:27;;;;;;;49.72;23.48;;;10.60;99.90;;;;;;4877412;29;20041;-83
2021/01/29 09:18:09;;;;;;;13.75;2.00;;;10.70;99.90;;;;;;4878184;29;20613;-83
2021/01/29 09:20:45;;;;;;;10.93;1.80;;;10.70;99.90;;;;;;4875891;29;20132;-81
2021/01/29 09:23:23;;;;;;;10.65;1.83;;;10.60;99.90;;;;;;4883164;29;20117;-82
2021/01/29 09:26:04;;;;;;;9.85;1.80;;;10.70;99.90;;;;;;4880082;29;20041;-79
2021/01/29 09:28:36;;;;;;;7.85;1.88;;;10.80;99.90;;;;;;4881762;29;20073;-81
2021/01/29 09:31:11;;;;;;;9.25;1.88;;;10.30;99.90;;;;;;4883697;29;20782;-82
2021/01/29 09:33:49;;;;;;;7.88;1.85;;;10.90;99.90;;;;;;4882920;29;20044;-83
2021/01/29 09:36:21;;;;;;;9.38;1.83;;;10.80;99.90;;;;;;4883253;29;20415;-83
2021/01/29 09:38:49;;;;;;;8.05;1.98;;;10.90;99.90;;;;;;4878659;29;20048;-82
2021/01/29 09:41:43;;;;;;;13.15;1.60;;;10.90;99.90;;;;;;4880438;29;20037;-80
2021/01/29 09:44:23;;;;;;;6.50;1.70;;;10.90;99.90;;;;;;4874396;29;20566;-82
2021/01/29 09:46:54;;;;;;;6.65;1.60;;;10.80;99.90;;;;;;4887671;29;20040;-81
2021/01/29 09:49:24;;;;;;;6.40;1.55;;;10.80;99.90;;;;;;4880789;29;20149;-83
2021/01/29 09:52:06;;;;;;;8.50;2.13;;;11.00;99.90;;;;;;4881098;29;20041;-83
2021/01/29 09:54:53;;;;;;;9.77;1.65;;;11.10;99.90;;;;;;4878769;29;20069;-82
2021/01/29 09:57:23;;;;;;;10.13;2.75;;;11.10;99.90;;;;;;4881657;29;20028;-82
2021/01/29 09:59:55;;;;;;;11.45;4.43;;;11.20;99.90;;;;;;4879202;29;20046;-78
2021/01/29 10:02:31;;;;;;;11.68;2.05;;;11.20;99.30;;;;;;4879804;29;20037;-83
2021/01/29 10:05:02;;;;;;;9.13;1.80;;;11.20;99.10;;;;;;4886127;29;20462;-80
2021/01/29 10:07:30;;;;;;;8.35;1.70;;;11.40;99.60;;;;;;4878378;29;20034;-82
2021/01/29 10:10:01;;;;;;;9.70;2.05;;;11.60;98.10;;;;;;4885894;29;20040;-84
2021/01/29 10:12:30;;;;;;;9.80;1.75;;;11.50;98.20;;;;;;4887088;29;20392;-83
2021/01/29 10:15:08;;;;;;;7.95;1.40;;;11.60;98.00;;;;;;4883109;29;20037;-82
2021/01/29 10:17:54;;;;;;;4.20;1.40;;;11.60;97.60;;;;;;4883651;29;20048;-81
2021/01/29 10:20:30;;;;;;;5.80;1.42;;;11.40;97.40;;;;;;4886318;29;20048;-86
2021/01/29 10:23:07;;;;;;;9.88;2.22;;;11.40;97.70;;;;;;4879147;29;20037;-82
2021/01/29 10:25:38;;;;;;;10.27;1.75;;;11.40;98.20;;;;;;4880953;29;20052;-81
2021/01/29 10:28:29;;;;;;;10.90;2.17;;;11.40;98.50;;;;;;4879810;29;20104;-82
2021/01/29 10:31:07;;;;;;;11.35;2.15;;;11.40;98.40;;;;;;4878469;29;20049;-84
2021/01/29 10:33:36;;;;;;;9.80;1.40;;;11.50;98.20;;;;;;4878048;29;20033;-82
2021/01/29 10:36:11;;;;;;;9.95;2.60;;;11.60;97.60;;;;;;4877059;29;20452;-84
2021/01/29 10:38:46;;;;;;;6.57;1.77;;;11.60;97.70;;;;;;4882789;29;20077;-81
2021/01/29 10:41:48;;;;;;;11.48;2.38;;;11.60;98.00;;;;;;4880981;29;20049;-82
2021/01/29 10:44:37;;;;;;;14.77;2.40;;;11.50;98.50;;;;;;4896263;29;20036;-83
2021/01/29 10:47:34;;;;;;;13.82;2.15;;;11.50;98.70;;;;;;4881128;29;20064;-84
2021/01/29 10:50:19;;;;;;;13.18;2.20;;;11.40;99.10;;;;;;4881661;29;20526;-79
2021/01/29 10:53:00;;;;;;;8.43;1.70;;;11.20;99.20;;;;;;4901302;29;20108;-84
2021/01/29 10:55:29;;;;;;;14.98;3.03;;;11.30;99.00;;;;;;4887025;29;20052;-84
2021/01/29 10:58:19;;;;;;;13.38;2.60;;;11.30;99.20;;;;;;4882348;29;20041;-78
2021/01/29 11:00:56;;;;;;;;;;;11.30;99.10;;;;;;4880019;29;20033;-82
2021/01/29 11:03:53;;;;;;;9.18;1.90;;;11.40;99.10;;;;;;4887170;29;19984;-82
2021/01/29 11:06:22;;;;;;;7.15;2.08;;;11.50;98.50;;;;;;4862945;29;20044;-83
2021/01/29 11:08:53;;;;;;;12.10;1.93;;;11.50;98.00;;;;;;4880447;29;20045;-81
2021/01/29 11:11:40;;;;;;;12.40;2.78;;;12.50;98.90;;;;;;4899054;29;20044;-83
2021/01/29 11:14:12;;;;;;;8.85;1.65;;;11.40;98.80;;;;;;4876957;29;20136;-83
2021/01/29 11:16:48;;;;;;;12.23;2.20;;;11.60;97.80;;;;;;4874835;29;20052;-81
2021/01/29 11:19:37;;;;;;;12.55;2.15;;;11.50;98.10;;;;;;4880999;29;20032;-82
2021/01/29 11:22:39;;;;;;;8.02;1.77;;;11.50;98.30;;;;;;4867844;29;20041;-83
2021/01/29 11:25:07;;;;;;;7.88;2.30;;;11.10;98.50;;;;;;4877179;29;20078;-76
2021/01/29 11:28:01;;;;;;;7.43;1.60;;;11.50;98.40;;;;;;4875991;29;20131;-82
2021/01/29 11:30:35;;;;;;;13.43;2.05;;;11.50;98.60;;;;;;4877047;29;20037;-83
2021/01/29 11:33:06;;;;;;;10.93;2.40;;;11.60;98.40;;;;;;4883531;29;20105;-82
2021/01/29 11:35:52;;;;;;;7.13;1.30;;;11.60;98.40;;;;;;4873912;29;20149;-82
2021/01/29 11:38:27;;;;;;;7.43;1.65;;;11.60;98.30;;;;;;4877920;29;20048;-82
2021/01/29 11:41:14;;;;;;;7.13;1.90;;;11.50;98.80;;;;;;4879375;29;20442;-81
2021/01/29 11:43:52;;;;;;;12.40;2.03;;;11.40;99.90;;;;;;4881580;29;20041;-82
2021/01/29 11:46:29;;;;;;;5.72;1.27;;;11.20;99.90;;;;;;4880798;29;20052;-81
2021/01/29 11:49:12;;;;;;;11.73;2.08;;;11.10;99.90;;;;;;4877500;29;20052;-77
2021/01/29 11:51:43;;;;;;;7.63;1.90;;;11.10;99.90;;;;;;4879710;29;20108;-82
2021/01/29 11:54:15;;;;;;;7.55;1.80;;;12.20;99.90;;;;;;4878845;29;20063;-84
2021/01/29 11:56:54;;;;;;;9.40;1.70;;;11.10;99.90;;;;;;4872692;29;20071;-77
2021/01/29 11:59:31;;;;;;;6.82;1.40;;;11.10;99.90;;;;;;4877119;29;20044;-80
2021/01/29 12:02:01;;;;;;;7.90;1.70;;;11.10;99.90;;;;;;4871080;29;20032;-78
2021/01/29 12:04:43;;;;;;;6.47;1.55;;;12.20;99.90;;;;;;4876740;29;20105;-78
2021/01/29 12:07:14;;;;;;;8.38;1.58;;;11.10;99.90;;;;;;4872733;29;20048;-76
2021/01/29 12:10:17;;;;;;;8.75;1.77;;;11.20;99.90;;;;;;4879645;29;20491;-80
2021/01/29 12:13:07;;;;;;;7.78;2.03;;;11.10;99.90;;;;;;4879327;29;20037;-79
2021/01/29 12:15:39;;;;;;;7.38;1.52;;;11.10;99.90;;;;;;4879719;29;20044;-78
2021/01/29 12:18:09;;;;;;;4.60;1.05;;;11.20;99.90;;;;;;4879045;29;20029;-79
2021/01/29 12:20:39;;;;;;;6.63;1.75;;;11.30;99.90;;;;;;4880638;29;20033;-78
2021/01/29 12:23:23;;;;;;;5.85;1.60;;;11.40;99.90;;;;;;4877201;29;20033;-79
2021/01/29 12:25:57;;;;;;;13.20;2.00;;;11.50;99.90;;;;;;4879303;29;20396;-79
2021/01/29 12:28:23;;;;;;;7.32;1.58;;;11.70;98.80;;;;;;4880411;29;20127;-80
2021/01/29 12:31:14;;;;;;;5.55;1.45;;;11.70;98.90;;;;;;4879957;29;20071;-80
2021/01/29 12:34:10;;;;;;;8.50;1.50;;;11.60;98.50;;;;;;4890188;29;20070;-78
2021/01/29 12:36:38;;;;;;;5.68;1.38;;;11.60;99.10;;;;;;4876162;29;20045;-79
2021/01/29 12:39:20;;;;;;;4.53;1.38;;;11.60;98.60;;;;;;4878190;29;20041;-79
2021/01/29 12:42:10;;;;;;;4.80;1.25;;;11.50;99.60;;;;;;4878428;29;20037;-81
2021/01/29 12:44:45;;;;;;;2.90;1.17;;;11.40;99.90;;;;;;4884284;29;20108;-79
2021/01/29 12:47:26;;;;;;;12.02;1.98;;;11.20;99.90;;;;;;4878684;29;20052;-81
2021/01/29 12:50:26;;;;;;;13.35;6.32;;;10.90;99.90;;;;;;4897874;29;20041;-82
2021/01/29 12:52:59;;;;;;;7.72;1.10;;;10.70;99.90;;;;;;4879858;29;20358;-82
2021/01/29 12:55:44;;;;;;;3.50;1.00;;;10.70;99.90;;;;;;4885511;29;20032;-81
2021/01/29 12:58:14;;;;;;;4.35;1.00;;;10.60;99.90;;;;;;4890500;29;20041;-80
2021/01/29 13:00:41;;;;;;;6.00;1.10;;;10.80;99.90;;;;;;4888932;29;20041;-80
2021/01/29 13:03:30;;;;;;;3.95;1.05;;;10.20;99.90;;;;;;4888806;29;20080;-83
2021/01/29 13:05:58;;;;;;;3.92;0.80;;;10.40;99.90;;;;;;4901655;29;20101;-83
2021/01/29 13:08:51;;;;;;;1.50;0.70;;;10.40;99.90;;;;;;4888002;29;20040;-78
2021/01/29 13:11:45;;;;;;;5.00;1.38;;;10.40;99.90;;;;;;4887177;29;20056;-80
2021/01/29 13:14:42;;;;;;;3.67;0.90;;;13.10;99.90;;;;;;4872608;29;20531;-79
2021/01/29 13:17:26;;;;;;;4.03;1.00;;;10.20;99.90;;;;;;4879179;29;20515;-86
2021/01/29 13:20:12;;;;;;;2.65;1.00;;;10.40;99.90;;;;;;4882048;29;20032;-80
2021/01/29 13:22:43;;;;;;;5.10;1.00;;;10.60;99.90;;;;;;4878462;29;20491;-82
2021/01/29 13:25:09;;;;;;;7.95;1.73;;;10.50;99.90;;;;;;4883498;29;20045;-80
2021/01/29 13:27:39;;;;;;;3.63;1.00;;;10.40;99.90;;;;;;4882002;29;20036;-78
2021/01/29 13:30:23;;;;;;;4.95;1.60;;;10.30;99.90;;;;;;4884451;29;20033;-79
2021/01/29 13:32:49;;;;;;;3.45;1.13;;;10.20;99.90;;;;;;4883725;29;20053;-83
2021/01/29 13:35:32;;;;;;;5.53;1.23;;;10.10;99.90;;;;;;4869123;29;20058;-79
2021/01/29 13:38:11;;;;;;;9.32;2.30;;;10.20;99.90;;;;;;4883921;29;20041;-82
2021/01/29 13:40:38;;;;;;;6.50;1.55;;;10.10;99.90;;;;;;4885282;29;20974;-79
2021/01/29 13:43:15;;;;;;;5.60;1.40;;;10.20;99.90;;;;;;4886913;29;20101;-82
2021/01/29 13:45:44;;;;;;;8.10;1.58;;;10.20;99.90;;;;;;4882659;29;20037;-81
2021/01/29 13:48:21;;;;;;;6.70;1.50;;;10.20;99.90;;;;;;4883965;29;20070;-82
2021/01/29 13:51:25;;;;;;;7.38;1.77;;;10.10;99.90;;;;;;4882611;29;20051;-82